sensor_id;sensor_type;location;lat;lon;timestamp;temperature;humidity
65836;SHT30;52595;51.608;7.216;2023-03-31T00:01:34;11.06;89.76
65836;SHT30;52595;51.608;7.216;2023-03-31T00:04:00;11.03;89.88
65836;SHT30;52595;51.608;7.216;2023-03-31T00:06:34;11.03;89.67
65836;SHT30;52595;51.608;7.216;2023-03-31T00:09:10;11.12;89.23
65836;SHT30;52595;51.608;7.216;2023-03-31T00:11:35;11.00;89.55
65836;SHT30;52595;51.608;7.216;2023-03-31T00:14:03;11.04;89.45
65836;SHT30;52595;51.608;7.216;2023-03-31T00:16:32;10.96;89.93
65836;SHT30;52595;51.608;7.216;2023-03-31T00:18:57;10.99;89.63
65836;SHT30;52595;51.608;7.216;2023-03-31T00:21:23;10.97;89.69
65836;SHT30;52595;51.608;7.216;2023-03-31T00:24:08;10.84;90.08
65836;SHT30;52595;51.608;7.216;2023-03-31T00:26:34;10.84;90.15
65836;SHT30;52595;51.608;7.216;2023-03-31T00:29:00;10.89;89.89
65836;SHT30;52595;51.608;7.216;2023-03-31T00:31:26;10.89;90.00
65836;SHT30;52595;51.608;7.216;2023-03-31T00:33:52;10.88;90.11
65836;SHT30;52595;51.608;7.216;2023-03-31T00:36:18;10.84;90.12
65836;SHT30;52595;51.608;7.216;2023-03-31T00:39:09;10.86;90.00
65836;SHT30;52595;51.608;7.216;2023-03-31T00:41:36;10.84;90.03
65836;SHT30;52595;51.608;7.216;2023-03-31T00:44:16;10.86;89.87
65836;SHT30;52595;51.608;7.216;2023-03-31T00:49:46;10.86;89.61
65836;SHT30;52595;51.608;7.216;2023-03-31T00:52:16;10.89;89.39
65836;SHT30;52595;51.608;7.216;2023-03-31T00:54:53;10.83;89.67
65836;SHT30;52595;51.608;7.216;2023-03-31T00:57:21;10.77;89.88
65836;SHT30;52595;51.608;7.216;2023-03-31T00:59:53;10.88;89.46
65836;SHT30;52595;51.608;7.216;2023-03-31T01:02:22;11.00;88.85
65836;SHT30;52595;51.608;7.216;2023-03-31T01:04:53;11.03;88.76
65836;SHT30;52595;51.608;7.216;2023-03-31T01:07:23;11.02;88.76
65836;SHT30;52595;51.608;7.216;2023-03-31T01:09:52;11.02;88.98
65836;SHT30;52595;51.608;7.216;2023-03-31T01:12:20;10.99;89.19
65836;SHT30;52595;51.608;7.216;2023-03-31T01:14:48;10.95;89.68
65836;SHT30;52595;51.608;7.216;2023-03-31T01:17:14;10.90;89.85
65836;SHT30;52595;51.608;7.216;2023-03-31T01:28:40;10.88;90.52
65836;SHT30;52595;51.608;7.216;2023-03-31T01:42:06;10.49;93.29
65836;SHT30;52595;51.608;7.216;2023-03-31T01:44:45;10.31;94.25
65836;SHT30;52595;51.608;7.216;2023-03-31T01:47:18;10.18;96.27
65836;SHT30;52595;51.608;7.216;2023-03-31T01:52:25;10.12;96.25
65836;SHT30;52595;51.608;7.216;2023-03-31T01:55:03;10.11;96.45
65836;SHT30;52595;51.608;7.216;2023-03-31T01:57:40;10.05;96.83
65836;SHT30;52595;51.608;7.216;2023-03-31T02:00:13;9.95;97.45
65836;SHT30;52595;51.608;7.216;2023-03-31T02:02:57;9.91;98.13
65836;SHT30;52595;51.608;7.216;2023-03-31T02:05:26;9.90;98.24
65836;SHT30;52595;51.608;7.216;2023-03-31T02:08:02;9.90;98.24
65836;SHT30;52595;51.608;7.216;2023-03-31T02:10:29;9.87;98.45
65836;SHT30;52595;51.608;7.216;2023-03-31T02:12:57;9.84;98.95
65836;SHT30;52595;51.608;7.216;2023-03-31T02:15:27;9.91;98.49
65836;SHT30;52595;51.608;7.216;2023-03-31T02:17:55;9.91;98.37
65836;SHT30;52595;51.608;7.216;2023-03-31T02:20:24;9.95;98.44
65836;SHT30;52595;51.608;7.216;2023-03-31T02:22:55;9.94;98.52
65836;SHT30;52595;51.608;7.216;2023-03-31T02:25:46;9.95;98.73
65836;SHT30;52595;51.608;7.216;2023-03-31T02:28:18;9.94;98.88
65836;SHT30;52595;51.608;7.216;2023-03-31T02:30:46;9.94;98.72
65836;SHT30;52595;51.608;7.216;2023-03-31T02:33:13;9.93;99.08
65836;SHT30;52595;51.608;7.216;2023-03-31T02:35:39;9.94;98.95
65836;SHT30;52595;51.608;7.216;2023-03-31T02:38:05;9.94;99.23
65836;SHT30;52595;51.608;7.216;2023-03-31T02:40:31;9.95;99.16
65836;SHT30;52595;51.608;7.216;2023-03-31T02:42:57;9.95;99.09
65836;SHT30;52595;51.608;7.216;2023-03-31T02:45:42;9.98;98.86
65836;SHT30;52595;51.608;7.216;2023-03-31T02:48:30;9.95;98.71
65836;SHT30;52595;51.608;7.216;2023-03-31T02:51:20;9.94;99.26
65836;SHT30;52595;51.608;7.216;2023-03-31T02:54:03;9.93;99.77
65836;SHT30;52595;51.608;7.216;2023-03-31T02:56:54;9.90;99.94
65836;SHT30;52595;51.608;7.216;2023-03-31T02:59:32;9.93;99.98
65836;SHT30;52595;51.608;7.216;2023-03-31T03:07:49;9.94;99.80
65836;SHT30;52595;51.608;7.216;2023-03-31T03:15:57;9.95;99.66
65836;SHT30;52595;51.608;7.216;2023-03-31T03:18:25;9.99;99.55
65836;SHT30;52595;51.608;7.216;2023-03-31T03:20:50;10.01;99.47
65836;SHT30;52595;51.608;7.216;2023-03-31T03:23:16;9.97;99.64
65836;SHT30;52595;51.608;7.216;2023-03-31T03:25:43;10.02;99.24
65836;SHT30;52595;51.608;7.216;2023-03-31T03:28:09;10.02;99.17
65836;SHT30;52595;51.608;7.216;2023-03-31T03:30:34;10.02;99.04
65836;SHT30;52595;51.608;7.216;2023-03-31T03:33:00;10.05;98.95
65836;SHT30;52595;51.608;7.216;2023-03-31T03:35:25;10.04;99.08
65836;SHT30;52595;51.608;7.216;2023-03-31T03:37:51;10.01;99.35
65836;SHT30;52595;51.608;7.216;2023-03-31T03:40:16;9.98;99.43
65836;SHT30;52595;51.608;7.216;2023-03-31T03:42:42;9.95;99.38
65836;SHT30;52595;51.608;7.216;2023-03-31T03:45:08;9.97;99.27
65836;SHT30;52595;51.608;7.216;2023-03-31T03:47:33;9.95;99.54
65836;SHT30;52595;51.608;7.216;2023-03-31T03:50:00;9.94;99.58
65836;SHT30;52595;51.608;7.216;2023-03-31T03:52:26;9.94;99.68
65836;SHT30;52595;51.608;7.216;2023-03-31T03:54:51;9.87;99.84
65836;SHT30;52595;51.608;7.216;2023-03-31T03:57:17;9.91;99.83
65836;SHT30;52595;51.608;7.216;2023-03-31T03:59:42;9.90;99.97
65836;SHT30;52595;51.608;7.216;2023-03-31T04:02:07;9.88;99.99
65836;SHT30;52595;51.608;7.216;2023-03-31T04:04:33;9.90;99.99
65836;SHT30;52595;51.608;7.216;2023-03-31T04:06:58;9.90;99.99
65836;SHT30;52595;51.608;7.216;2023-03-31T04:09:23;9.91;99.99
65836;SHT30;52595;51.608;7.216;2023-03-31T04:11:49;9.87;99.99
65836;SHT30;52595;51.608;7.216;2023-03-31T04:14:14;9.90;99.97
65836;SHT30;52595;51.608;7.216;2023-03-31T04:16:40;9.90;99.88
65836;SHT30;52595;51.608;7.216;2023-03-31T04:19:06;9.88;99.87
65836;SHT30;52595;51.608;7.216;2023-03-31T04:21:32;9.90;99.94
65836;SHT30;52595;51.608;7.216;2023-03-31T04:24:01;9.91;99.96
65836;SHT30;52595;51.608;7.216;2023-03-31T04:26:30;9.90;99.78
65836;SHT30;52595;51.608;7.216;2023-03-31T04:29:06;9.88;99.99
65836;SHT30;52595;51.608;7.216;2023-03-31T04:31:33;9.87;99.92
65836;SHT30;52595;51.608;7.216;2023-03-31T04:33:58;9.86;99.99
65836;SHT30;52595;51.608;7.216;2023-03-31T04:36:33;9.86;99.69
65836;SHT30;52595;51.608;7.216;2023-03-31T04:38:59;9.87;99.60
65836;SHT30;52595;51.608;7.216;2023-03-31T04:41:25;9.87;99.89
65836;SHT30;52595;51.608;7.216;2023-03-31T04:43:54;9.81;99.69
65836;SHT30;52595;51.608;7.216;2023-03-31T04:46:20;9.86;99.65
65836;SHT30;52595;51.608;7.216;2023-03-31T04:48:45;9.84;99.64
65836;SHT30;52595;51.608;7.216;2023-03-31T04:51:11;9.83;99.99
65836;SHT30;52595;51.608;7.216;2023-03-31T04:53:39;9.86;99.99
65836;SHT30;52595;51.608;7.216;2023-03-31T04:56:05;9.83;99.74
65836;SHT30;52595;51.608;7.216;2023-03-31T04:58:31;9.87;99.32
65836;SHT30;52595;51.608;7.216;2023-03-31T05:00:57;9.87;99.33
65836;SHT30;52595;51.608;7.216;2023-03-31T05:03:22;9.86;99.55
65836;SHT30;52595;51.608;7.216;2023-03-31T05:05:48;9.86;99.40
65836;SHT30;52595;51.608;7.216;2023-03-31T05:08:13;9.81;99.81
65836;SHT30;52595;51.608;7.216;2023-03-31T05:10:38;9.86;99.70
65836;SHT30;52595;51.608;7.216;2023-03-31T05:13:04;9.84;99.64
65836;SHT30;52595;51.608;7.216;2023-03-31T05:15:29;9.87;99.26
65836;SHT30;52595;51.608;7.216;2023-03-31T05:17:56;9.87;98.91
65836;SHT30;52595;51.608;7.216;2023-03-31T05:20:22;9.84;99.36
65836;SHT30;52595;51.608;7.216;2023-03-31T05:22:48;9.84;98.95
65836;SHT30;52595;51.608;7.216;2023-03-31T05:25:14;9.83;99.27
65836;SHT30;52595;51.608;7.216;2023-03-31T05:27:44;9.78;99.22
65836;SHT30;52595;51.608;7.216;2023-03-31T05:30:10;9.77;99.31
65836;SHT30;52595;51.608;7.216;2023-03-31T05:32:35;9.71;99.82
65836;SHT30;52595;51.608;7.216;2023-03-31T05:35:01;9.73;99.09
65836;SHT30;52595;51.608;7.216;2023-03-31T05:37:26;9.69;99.76
65836;SHT30;52595;51.608;7.216;2023-03-31T05:39:52;9.66;99.68
65836;SHT30;52595;51.608;7.216;2023-03-31T05:42:18;9.73;99.16
65836;SHT30;52595;51.608;7.216;2023-03-31T05:44:44;9.71;99.14
65836;SHT30;52595;51.608;7.216;2023-03-31T05:47:10;9.70;99.17
65836;SHT30;52595;51.608;7.216;2023-03-31T05:49:35;9.66;99.47
65836;SHT30;52595;51.608;7.216;2023-03-31T05:52:03;9.69;99.05
65836;SHT30;52595;51.608;7.216;2023-03-31T05:54:28;9.70;99.33
65836;SHT30;52595;51.608;7.216;2023-03-31T05:56:54;9.70;99.28
65836;SHT30;52595;51.608;7.216;2023-03-31T05:59:19;9.73;99.42
65836;SHT30;52595;51.608;7.216;2023-03-31T06:01:45;9.76;99.56
65836;SHT30;52595;51.608;7.216;2023-03-31T06:04:10;9.81;99.22
65836;SHT30;52595;51.608;7.216;2023-03-31T06:06:36;9.84;98.77
65836;SHT30;52595;51.608;7.216;2023-03-31T06:09:03;9.87;98.36
65836;SHT30;52595;51.608;7.216;2023-03-31T06:11:28;9.88;98.56
65836;SHT30;52595;51.608;7.216;2023-03-31T06:13:54;9.93;98.17
65836;SHT30;52595;51.608;7.216;2023-03-31T06:16:19;9.90;98.43
